Time;durP1;ratioP1;P1;durP2;ratioP2;P2;SDS_P1;SDS_P2;PMS_P1;PMS_P2;Temp;Humidity;BMP_temperature;BMP_pressure;BME280_temperature;BME280_humidity;BME280_pressure;Samples;Min_cycle;Max_cycle;Signal;HPM_P1;HPM_P2
2022/11/24 00:01:40;;;;;;;17.77;4.10;;;;;;;;;;4982047;28;20594;-65
2022/11/24 00:04:05;;;;;;;19.70;3.33;;;;;;;;;;4982297;28;20268;-65
2022/11/24 00:06:31;;;;;;;19.55;3.63;;;;;;;;;;4982895;28;20695;-65
2022/11/24 00:08:56;;;;;;;20.42;3.80;;;;;;;;;;4993329;28;20288;-65
2022/11/24 00:11:23;;;;;;;20.25;4.40;;;;;;;;;;4980416;28;21031;-65
2022/11/24 00:13:49;;;;;;;20.95;3.45;;;;;;;;;;4980614;28;21098;-65
2022/11/24 00:16:16;;;;;;;18.15;3.67;;;;;;;;;;4973455;28;20213;-64
2022/11/24 00:18:42;;;;;;;15.63;3.20;;;;;;;;;;4993610;28;20223;-65
2022/11/24 00:21:07;;;;;;;15.15;3.67;;;;;;;;;;5001358;28;20594;-65
2022/11/24 00:23:33;;;;;;;18.13;3.60;;;;;;;;;;5001679;28;20247;-65
2022/11/24 00:26:08;;;;;;;17.17;3.80;;;;;;;;;;5005477;28;20279;-65
2022/11/24 00:28:34;;;;;;;17.27;3.47;;;;;;;;;;5004671;28;20204;-65
2022/11/24 00:30:59;;;;;;;17.27;3.47;;;;;;;;;;5003343;28;20212;-65
2022/11/24 00:33:25;;;;;;;17.75;3.97;;;;;;;;;;5003560;28;20681;-65
2022/11/24 00:35:56;;;;;;;19.13;3.35;;;;;;;;;;4998080;28;20243;-65
2022/11/24 00:38:21;;;;;;;19.55;3.53;;;;;;;;;;4995825;28;20213;-65
2022/11/24 00:40:47;;;;;;;17.95;3.55;;;;;;;;;;4980517;28;20733;-65
2022/11/24 00:43:12;;;;;;;17.17;3.55;;;;;;;;;;4983749;28;20256;-65
2022/11/24 00:45:37;;;;;;;18.70;3.22;;;;;;;;;;4986359;28;20213;-65
2022/11/24 00:48:03;;;;;;;17.08;3.97;;;;;;;;;;4985194;28;20590;-65
2022/11/24 00:50:28;;;;;;;23.13;4.50;;;;;;;;;;4984950;28;20224;-65
2022/11/24 00:52:53;;;;;;;19.27;3.35;;;;;;;;;;4985528;28;20213;-65
2022/11/24 00:55:19;;;;;;;17.08;3.47;;;;;;;;;;4984970;28;20213;-65
2022/11/24 00:57:44;;;;;;;17.92;2.88;;;;;;;;;;4985345;28;20311;-65
2022/11/24 01:00:09;;;;;;;13.48;3.30;;;;;;;;;;5004604;28;20297;-65
2022/11/24 01:02:34;;;;;;;17.83;3.80;;;;;;;;;;5014753;28;20216;-65
2022/11/24 01:05:02;;;;;;;18.80;3.30;;;;;;;;;;5013834;28;20698;-65
2022/11/24 01:07:27;;;;;;;14.97;2.97;;;;;;;;;;5014645;28;20212;-65
2022/11/24 01:09:52;;;;;;;12.48;3.28;;;;;;;;;;5014541;28;20216;-64
2022/11/24 01:12:17;;;;;;;17.52;3.20;;;;;;;;;;5013062;28;20235;-65
2022/11/24 01:14:43;;;;;;;16.33;3.13;;;;;;;;;;5014612;28;20676;-65
2022/11/24 01:17:08;;;;;;;14.95;3.42;;;;;;;;;;5014205;28;20672;-65
2022/11/24 01:19:33;;;;;;;19.80;3.00;;;;;;;;;;5013798;28;20234;-65
2022/11/24 01:21:59;;;;;;;17.92;3.00;;;;;;;;;;5013168;28;20699;-65
2022/11/24 01:24:24;;;;;;;18.63;3.17;;;;;;;;;;5013773;28;20217;-65
2022/11/24 01:26:49;;;;;;;18.80;3.55;;;;;;;;;;5013692;28;20222;-65
2022/11/24 01:29:15;;;;;;;17.10;2.88;;;;;;;;;;5013612;28;20684;-64
2022/11/24 01:31:40;;;;;;;19.83;2.85;;;;;;;;;;5014388;28;20204;-65
2022/11/24 01:34:05;;;;;;;16.30;2.80;;;;;;;;;;5002085;28;20216;-65
2022/11/24 01:36:31;;;;;;;16.27;3.30;;;;;;;;;;4994783;28;20283;-65
2022/11/24 01:38:56;;;;;;;14.60;2.90;;;;;;;;;;4996893;28;20208;-65
2022/11/24 01:41:22;;;;;;;15.95;2.80;;;;;;;;;;4996042;28;20279;-64
2022/11/24 01:43:48;;;;;;;15.85;2.92;;;;;;;;;;4994256;28;20236;-65
2022/11/24 01:46:21;;;;;;;14.00;3.05;;;;;;;;;;5003005;28;20663;-65
2022/11/24 01:48:48;;;;;;;17.60;2.88;;;;;;;;;;5012076;28;20238;-65
2022/11/24 01:51:14;;;;;;;21.85;3.53;;;;;;;;;;5013499;28;20304;-65
2022/11/24 01:53:40;;;;;;;15.77;2.53;;;;;;;;;;5011934;28;20315;-65
2022/11/24 01:56:06;;;;;;;16.67;2.75;;;;;;;;;;5012072;28;20205;-65
2022/11/24 01:58:31;;;;;;;18.67;2.67;;;;;;;;;;5006120;28;20566;-65
2022/11/24 02:00:56;;;;;;;18.55;3.05;;;;;;;;;;4993295;28;20225;-65
2022/11/24 02:03:22;;;;;;;17.05;2.97;;;;;;;;;;4994838;28;20221;-65
2022/11/24 02:05:50;;;;;;;21.30;2.88;;;;;;;;;;4994192;28;20213;-65
2022/11/24 02:08:20;;;;;;;16.98;2.75;;;;;;;;;;4992766;28;20213;-65
2022/11/24 02:10:45;;;;;;;18.73;3.03;;;;;;;;;;4998544;28;20213;-65
2022/11/24 02:13:10;;;;;;;19.67;2.60;;;;;;;;;;4992884;28;20347;-65
2022/11/24 02:15:36;;;;;;;15.93;2.55;;;;;;;;;;5000657;28;20216;-65
2022/11/24 02:18:01;;;;;;;14.82;2.60;;;;;;;;;;5013289;28;20215;-65
2022/11/24 02:20:26;;;;;;;15.05;3.20;;;;;;;;;;5013492;28;20220;-65
2022/11/24 02:22:54;;;;;;;18.08;2.92;;;;;;;;;;5011321;28;20262;-65
2022/11/24 02:25:39;;;;;;;15.30;2.53;;;;;;;;;;5011252;28;20560;-65
2022/11/24 02:28:05;;;;;;;18.15;3.03;;;;;;;;;;5012820;28;20220;-65
2022/11/24 02:30:31;;;;;;;14.43;2.70;;;;;;;;;;5012560;28;20220;-65
2022/11/24 02:32:56;;;;;;;14.30;2.95;;;;;;;;;;5013227;28;20223;-65
2022/11/24 02:35:21;;;;;;;15.60;2.40;;;;;;;;;;5012775;28;20235;-65
2022/11/24 02:37:47;;;;;;;15.27;2.92;;;;;;;;;;5012491;28;20212;-65
2022/11/24 02:40:14;;;;;;;16.02;2.97;;;;;;;;;;5001518;28;20233;-65
2022/11/24 02:42:40;;;;;;;15.75;2.90;;;;;;;;;;4991409;28;20696;-65
2022/11/24 02:45:06;;;;;;;16.02;2.75;;;;;;;;;;4991627;28;20217;-65
2022/11/24 02:47:31;;;;;;;20.23;3.80;;;;;;;;;;5011280;28;20552;-65
2022/11/24 02:49:56;;;;;;;16.17;3.08;;;;;;;;;;5012249;28;20749;-65
2022/11/24 02:52:22;;;;;;;13.05;2.40;;;;;;;;;;5012335;28;20676;-65
2022/11/24 02:54:47;;;;;;;13.65;2.38;;;;;;;;;;5012995;28;20220;-65
2022/11/24 02:57:12;;;;;;;14.73;2.63;;;;;;;;;;5011418;28;20240;-65
2022/11/24 02:59:37;;;;;;;19.90;2.85;;;;;;;;;;5012811;28;20648;-65
2022/11/24 03:02:03;;;;;;;15.75;2.80;;;;;;;;;;5012327;28;20216;-65
2022/11/24 03:04:28;;;;;;;15.90;2.90;;;;;;;;;;5012050;28;20621;-65
2022/11/24 03:06:53;;;;;;;13.85;2.40;;;;;;;;;;5012836;28;20208;-65
2022/11/24 03:09:19;;;;;;;17.52;2.70;;;;;;;;;;5002518;28;20209;-65
2022/11/24 03:11:44;;;;;;;16.33;2.50;;;;;;;;;;4991959;28;20224;-65
2022/11/24 03:14:09;;;;;;;17.05;2.60;;;;;;;;;;4992545;28;20622;-65
2022/11/24 03:16:35;;;;;;;14.73;3.05;;;;;;;;;;5008567;28;20220;-65
2022/11/24 03:19:00;;;;;;;19.92;2.83;;;;;;;;;;5011861;28;20212;-65
2022/11/24 03:21:25;;;;;;;18.33;2.90;;;;;;;;;;5012181;28;20291;-65
2022/11/24 03:23:51;;;;;;;15.13;2.67;;;;;;;;;;5012655;28;20247;-65
2022/11/24 03:26:17;;;;;;;16.65;2.97;;;;;;;;;;5009988;28;20223;-65
2022/11/24 03:28:42;;;;;;;16.70;2.83;;;;;;;;;;5012457;28;20216;-65
2022/11/24 03:31:07;;;;;;;17.23;2.67;;;;;;;;;;5012068;28;20217;-65
2022/11/24 03:33:33;;;;;;;18.33;3.22;;;;;;;;;;5011840;28;20574;-65
2022/11/24 03:35:58;;;;;;;14.77;2.50;;;;;;;;;;5006554;28;20212;-65
2022/11/24 03:38:23;;;;;;;22.30;3.42;;;;;;;;;;4992446;28;20228;-65
2022/11/24 03:40:49;;;;;;;13.60;2.65;;;;;;;;;;5007873;28;20259;-65
2022/11/24 03:43:14;;;;;;;18.00;2.88;;;;;;;;;;5011425;28;20676;-65
2022/11/24 03:45:39;;;;;;;19.48;3.03;;;;;;;;;;5008066;28;20236;-65
2022/11/24 03:48:05;;;;;;;15.25;2.78;;;;;;;;;;4991520;28;20217;-65
2022/11/24 03:50:30;;;;;;;14.85;2.95;;;;;;;;;;4992891;28;20279;-65
2022/11/24 03:52:56;;;;;;;18.00;3.45;;;;;;;;;;4991395;28;20579;-65
2022/11/24 03:55:21;;;;;;;20.13;3.25;;;;;;;;;;4991552;28;20663;-65
2022/11/24 03:57:46;;;;;;;18.27;3.42;;;;;;;;;;4991071;28;20217;-65
2022/11/24 04:00:12;;;;;;;13.03;3.23;;;;;;;;;;4994731;28;20241;-65
2022/11/24 04:02:37;;;;;;;16.60;2.70;;;;;;;;;;4996305;28;20742;-65
2022/11/24 04:05:03;;;;;;;18.13;3.05;;;;;;;;;;4983470;28;20217;-65
2022/11/24 04:07:28;;;;;;;13.55;2.85;;;;;;;;;;4980125;28;20208;-65
2022/11/24 04:09:54;;;;;;;20.50;2.85;;;;;;;;;;4979286;28;20209;-65
2022/11/24 04:15:03;;;;;;;18.08;3.13;;;;;;;;;;4985405;28;20216;-64
2022/11/24 04:17:28;;;;;;;17.88;3.22;;;;;;;;;;4986750;28;20217;-64
2022/11/24 04:19:53;;;;;;;17.17;3.08;;;;;;;;;;4985584;28;20279;-64
2022/11/24 04:22:19;;;;;;;15.32;3.55;;;;;;;;;;4984867;28;20309;-64
2022/11/24 04:24:44;;;;;;;24.75;2.92;;;;;;;;;;4986130;28;20213;-64
2022/11/24 04:27:09;;;;;;;16.48;3.10;;;;;;;;;;4980127;28;20221;-64
2022/11/24 04:29:34;;;;;;;22.20;2.72;;;;;;;;;;4988792;28;20884;-64
2022/11/24 04:32:00;;;;;;;16.33;3.63;;;;;;;;;;4997401;28;20638;-64
2022/11/24 04:34:25;;;;;;;17.27;3.00;;;;;;;;;;5002417;28;20224;-64
2022/11/24 04:36:50;;;;;;;18.90;3.75;;;;;;;;;;5004645;28;20220;-63
2022/11/24 04:39:15;;;;;;;18.08;3.00;;;;;;;;;;4994855;28;20213;-64
2022/11/24 04:41:41;;;;;;;20.70;3.23;;;;;;;;;;4985878;28;20252;-64
2022/11/24 04:44:06;;;;;;;17.47;3.10;;;;;;;;;;5003450;28;20221;-64
2022/11/24 04:46:31;;;;;;;14.85;2.55;;;;;;;;;;4993882;28;20224;-63
2022/11/24 04:48:57;;;;;;;19.80;3.17;;;;;;;;;;4982584;28;20217;-64
2022/11/24 04:51:22;;;;;;;19.25;3.55;;;;;;;;;;4976811;28;20224;-64
2022/11/24 04:53:47;;;;;;;15.07;3.03;;;;;;;;;;4977949;28;20210;-64
2022/11/24 04:56:13;;;;;;;17.13;3.20;;;;;;;;;;4999187;28;20702;-64
2022/11/24 04:58:38;;;;;;;20.10;3.73;;;;;;;;;;5003759;28;20267;-64
2022/11/24 05:01:07;;;;;;;22.00;3.37;;;;;;;;;;5004064;28;20236;-64
2022/11/24 05:03:32;;;;;;;19.47;2.97;;;;;;;;;;5003954;28;20307;-63
2022/11/24 05:05:58;;;;;;;15.23;3.10;;;;;;;;;;5001272;28;20474;-64
2022/11/24 05:08:23;;;;;;;19.70;3.38;;;;;;;;;;4985187;28;20223;-64
2022/11/24 05:10:49;;;;;;;17.17;3.13;;;;;;;;;;4983393;28;20307;-64
2022/11/24 05:13:14;;;;;;;18.38;2.83;;;;;;;;;;4977631;28;20217;-64
2022/11/24 05:15:39;;;;;;;14.20;2.72;;;;;;;;;;4977185;28;20724;-64
2022/11/24 05:18:05;;;;;;;25.35;3.75;;;;;;;;;;4994291;28;20531;-64
2022/11/24 05:20:31;;;;;;;19.40;3.15;;;;;;;;;;5004281;28;20240;-64
2022/11/24 05:22:59;;;;;;;19.58;3.38;;;;;;;;;;5004522;28;20220;-64
2022/11/24 05:25:25;;;;;;;14.48;3.10;;;;;;;;;;4993507;28;20575;-64
2022/11/24 05:27:50;;;;;;;18.88;3.83;;;;;;;;;;4985435;28;20221;-64
2022/11/24 05:30:15;;;;;;;16.08;3.25;;;;;;;;;;4984398;28;20213;-64
2022/11/24 05:32:41;;;;;;;17.38;3.05;;;;;;;;;;4984589;28;20220;-64
2022/11/24 05:35:08;;;;;;;17.35;3.03;;;;;;;;;;4980131;28;20205;-64
2022/11/24 05:37:33;;;;;;;14.40;3.13;;;;;;;;;;4982104;28;20228;-64
2022/11/24 05:39:59;;;;;;;12.98;2.83;;;;;;;;;;4976608;28;20221;-63
2022/11/24 05:42:39;;;;;;;17.98;2.60;;;;;;;;;;4982469;28;20225;-64
2022/11/24 05:45:04;;;;;;;13.10;2.40;;;;;;;;;;4984192;28;20705;-64
2022/11/24 05:47:30;;;;;;;17.73;2.72;;;;;;;;;;4984266;28;20225;-64
2022/11/24 05:49:55;;;;;;;10.45;2.50;;;;;;;;;;4984673;28;20217;-64
2022/11/24 05:52:20;;;;;;;15.40;2.80;;;;;;;;;;4984121;28;20669;-64
2022/11/24 05:54:46;;;;;;;16.08;2.75;;;;;;;;;;5002051;28;20562;-64
2022/11/24 05:57:12;;;;;;;12.48;2.20;;;;;;;;;;5005978;28;20217;-63
2022/11/24 05:59:37;;;;;;;14.30;2.83;;;;;;;;;;4993124;28;20452;-64
2022/11/24 06:02:02;;;;;;;16.73;2.97;;;;;;;;;;4993124;28;20436;-63
2022/11/24 06:04:27;;;;;;;13.18;2.67;;;;;;;;;;4993025;28;20247;-63
2022/11/24 06:06:53;;;;;;;13.70;2.17;;;;;;;;;;4993164;28;20243;-64
2022/11/24 06:09:18;;;;;;;13.37;3.23;;;;;;;;;;4999862;28;20431;-64
2022/11/24 06:11:43;;;;;;;11.20;2.42;;;;;;;;;;5004468;28;20212;-63
2022/11/24 06:14:09;;;;;;;10.98;2.17;;;;;;;;;;5003993;28;20263;-64
2022/11/24 06:16:35;;;;;;;10.18;2.25;;;;;;;;;;5003431;28;20215;-63
2022/11/24 06:19:00;;;;;;;12.57;2.40;;;;;;;;;;5004054;28;20220;-64
2022/11/24 06:21:25;;;;;;;10.43;2.45;;;;;;;;;;5000036;28;20233;-63
2022/11/24 06:23:51;;;;;;;10.80;2.38;;;;;;;;;;5003291;28;20216;-64
2022/11/24 06:26:17;;;;;;;16.58;2.97;;;;;;;;;;5002878;28;20212;-63
2022/11/24 06:28:42;;;;;;;6.10;2.15;;;;;;;;;;5001259;28;20209;-63
2022/11/24 06:31:08;;;;;;;9.40;1.60;;;;;;;;;;5002947;28;20212;-63
2022/11/24 06:33:33;;;;;;;9.47;2.73;;;;;;;;;;5003955;28;20216;-63
2022/11/24 06:36:00;;;;;;;11.10;1.97;;;;;;;;;;5002795;28;20738;-64
2022/11/24 06:38:25;;;;;;;9.38;1.70;;;;;;;;;;5005119;28;20213;-64
2022/11/24 06:40:57;;;;;;;8.18;1.80;;;;;;;;;;5001414;28;20267;-64
2022/11/24 06:43:22;;;;;;;7.13;2.00;;;;;;;;;;5001415;28;20274;-64
2022/11/24 06:45:50;;;;;;;5.18;1.92;;;;;;;;;;5003081;28;20598;-64
2022/11/24 06:48:15;;;;;;;6.03;1.80;;;;;;;;;;5001476;28;20216;-64
2022/11/24 06:50:40;;;;;;;11.33;4.37;;;;;;;;;;5002020;28;20208;-64
2022/11/24 06:53:06;;;;;;;10.35;4.80;;;;;;;;;;5002660;28;20669;-64
2022/11/24 06:55:32;;;;;;;10.30;4.25;;;;;;;;;;5000246;28;20205;-64
2022/11/24 06:57:57;;;;;;;9.43;3.37;;;;;;;;;;5004071;28;20275;-65
2022/11/24 07:00:22;;;;;;;8.27;2.40;;;;;;;;;;5002537;28;20664;-64
2022/11/24 07:02:47;;;;;;;7.00;2.20;;;;;;;;;;5001957;28;20216;-64
2022/11/24 07:05:13;;;;;;;5.45;1.80;;;;;;;;;;4994572;28;20213;-65
2022/11/24 07:07:38;;;;;;;10.00;3.00;;;;;;;;;;5000422;28;20217;-65
2022/11/24 07:10:03;;;;;;;6.30;2.30;;;;;;;;;;5018545;28;20675;-65
2022/11/24 07:12:32;;;;;;;6.30;1.90;;;;;;;;;;5021838;28;20230;-65
2022/11/24 07:14:57;;;;;;;6.88;1.85;;;;;;;;;;5017159;28;20639;-65
2022/11/24 07:17:23;;;;;;;7.38;2.00;;;;;;;;;;4999280;28;20295;-65
2022/11/24 07:19:48;;;;;;;10.38;2.47;;;;;;;;;;5003212;28;20228;-64
2022/11/24 07:22:13;;;;;;;5.93;1.90;;;;;;;;;;5009041;28;20212;-64
2022/11/24 07:24:38;;;;;;;7.90;2.72;;;;;;;;;;5011909;28;20634;-63
2022/11/24 07:27:04;;;;;;;8.00;2.50;;;;;;;;;;5011869;28;20295;-64
2022/11/24 07:29:29;;;;;;;7.78;3.33;;;;;;;;;;5009216;28;20660;-64
2022/11/24 07:31:54;;;;;;;9.48;3.53;;;;;;;;;;5008241;28;20303;-65
2022/11/24 07:34:20;;;;;;;7.55;2.78;;;;;;;;;;5005966;28;20249;-64
2022/11/24 07:36:45;;;;;;;11.27;3.05;;;;;;;;;;5008180;28;20983;-64
2022/11/24 07:39:10;;;;;;;8.37;3.20;;;;;;;;;;4998105;28;20224;-65
2022/11/24 07:41:36;;;;;;;7.65;3.42;;;;;;;;;;5002120;28;20719;-64
2022/11/24 07:44:01;;;;;;;9.45;4.30;;;;;;;;;;5013233;28;20295;-65
2022/11/24 07:46:26;;;;;;;8.90;4.03;;;;;;;;;;5006907;28;20213;-64
2022/11/24 07:48:52;;;;;;;8.48;3.90;;;;;;;;;;4996439;28;20674;-65
2022/11/24 07:51:17;;;;;;;11.98;5.00;;;;;;;;;;5001582;28;20212;-65
2022/11/24 07:53:42;;;;;;;9.48;4.53;;;;;;;;;;4994281;28;20263;-65
2022/11/24 07:56:08;;;;;;;9.50;4.95;;;;;;;;;;4996102;28;20641;-65
2022/11/24 07:58:34;;;;;;;12.52;5.38;;;;;;;;;;5008189;28;20751;-65
2022/11/24 08:01:07;;;;;;;9.93;4.60;;;;;;;;;;5014141;28;20706;-65
2022/11/24 08:03:32;;;;;;;8.23;4.68;;;;;;;;;;5015447;28;20212;-65
2022/11/24 08:05:58;;;;;;;8.53;4.50;;;;;;;;;;5016050;28;20208;-65
2022/11/24 08:08:23;;;;;;;11.27;5.15;;;;;;;;;;4997537;28;20240;-64
2022/11/24 08:10:48;;;;;;;8.35;4.20;;;;;;;;;;4996331;28;20626;-63
2022/11/24 08:13:14;;;;;;;10.87;4.53;;;;;;;;;;4994019;28;20776;-63
2022/11/24 08:15:39;;;;;;;9.20;4.25;;;;;;;;;;5003946;28;20216;-64
2022/11/24 08:18:04;;;;;;;11.15;4.43;;;;;;;;;;5014974;28;20208;-64
2022/11/24 08:20:30;;;;;;;11.15;5.32;;;;;;;;;;5014658;28;20232;-64
2022/11/24 08:22:57;;;;;;;9.85;4.57;;;;;;;;;;5015314;28;20284;-63
2022/11/24 08:25:25;;;;;;;8.70;4.70;;;;;;;;;;5015027;28;20216;-64
2022/11/24 08:27:50;;;;;;;11.60;4.97;;;;;;;;;;5014962;28;20262;-63
2022/11/24 08:30:16;;;;;;;11.05;5.13;;;;;;;;;;5015134;28;20208;-64
2022/11/24 08:32:41;;;;;;;10.02;5.22;;;;;;;;;;5010677;28;20307;-63
2022/11/24 08:35:07;;;;;;;11.80;5.73;;;;;;;;;;4993117;28;20213;-64
2022/11/24 08:37:32;;;;;;;15.40;6.47;;;;;;;;;;4995535;28;20206;-63
2022/11/24 08:39:57;;;;;;;10.70;5.57;;;;;;;;;;5004548;28;20212;-63
2022/11/24 08:42:22;;;;;;;17.77;10.40;;;;;;;;;;5013847;28;20212;-64
2022/11/24 08:44:48;;;;;;;11.88;6.18;;;;;;;;;;5014225;28;20212;-64
2022/11/24 08:47:13;;;;;;;14.35;5.85;;;;;;;;;;4997019;28;20582;-63
2022/11/24 08:49:38;;;;;;;11.60;5.33;;;;;;;;;;4993266;28;20220;-64
2022/11/24 08:52:04;;;;;;;9.90;4.85;;;;;;;;;;4994831;28;20221;-64
2022/11/24 08:54:29;;;;;;;12.95;5.25;;;;;;;;;;4993928;28;20213;-63
2022/11/24 08:56:54;;;;;;;10.18;4.40;;;;;;;;;;4994536;28;20265;-63
2022/11/24 08:59:20;;;;;;;8.85;4.25;;;;;;;;;;4994760;28;20236;-63
2022/11/24 09:01:45;;;;;;;13.98;4.20;;;;;;;;;;4995137;28;20229;-63
2022/11/24 09:04:10;;;;;;;12.60;4.47;;;;;;;;;;4993737;28;20209;-63
2022/11/24 09:06:35;;;;;;;11.20;3.85;;;;;;;;;;4994972;28;20292;-63
2022/11/24 09:09:01;;;;;;;10.13;3.90;;;;;;;;;;5013451;28;20219;-64
2022/11/24 09:11:26;;;;;;;10.60;3.90;;;;;;;;;;5013880;28;20218;-64
2022/11/24 09:13:52;;;;;;;10.45;3.65;;;;;;;;;;5014559;28;20219;-63
2022/11/24 09:16:18;;;;;;;11.60;4.00;;;;;;;;;;5000858;28;20750;-63
2022/11/24 09:18:43;;;;;;;10.35;4.00;;;;;;;;;;4994405;28;20312;-63
2022/11/24 09:21:12;;;;;;;12.20;3.50;;;;;;;;;;4993973;28;20378;-64
2022/11/24 09:23:38;;;;;;;13.32;3.65;;;;;;;;;;4993114;28;20225;-63
2022/11/24 09:26:10;;;;;;;11.52;3.88;;;;;;;;;;4994537;28;20585;-62
2022/11/24 09:28:35;;;;;;;10.38;3.40;;;;;;;;;;4993820;28;20583;-63
2022/11/24 09:31:01;;;;;;;10.43;4.15;;;;;;;;;;4993600;28;20217;-63
2022/11/24 09:33:26;;;;;;;11.38;3.53;;;;;;;;;;4994860;28;20555;-62
2022/11/24 09:35:51;;;;;;;12.18;3.80;;;;;;;;;;4994340;28;20759;-62
2022/11/24 09:38:17;;;;;;;12.60;3.67;;;;;;;;;;4993566;28;20220;-63
2022/11/24 09:40:42;;;;;;;12.18;3.70;;;;;;;;;;5005759;28;20769;-63
2022/11/24 09:43:11;;;;;;;9.63;2.95;;;;;;;;;;5011401;28;20221;-63
2022/11/24 09:45:40;;;;;;;13.25;3.47;;;;;;;;;;5007936;28;20209;-63
2022/11/24 09:48:10;;;;;;;11.40;3.30;;;;;;;;;;4984177;28;20599;-63
2022/11/24 09:50:35;;;;;;;10.93;3.20;;;;;;;;;;4973363;28;20225;-63
2022/11/24 09:53:02;;;;;;;12.45;3.03;;;;;;;;;;4973844;28;20210;-63
2022/11/24 09:55:27;;;;;;;10.70;2.70;;;;;;;;;;4974747;28;20745;-63
2022/11/24 09:58:05;;;;;;;9.55;2.78;;;;;;;;;;4992334;28;20224;-63
2022/11/24 10:00:30;;;;;;;14.07;2.65;;;;;;;;;;4981274;28;20235;-63
2022/11/24 10:02:56;;;;;;;7.95;2.60;;;;;;;;;;4998724;28;20212;-63
2022/11/24 10:05:21;;;;;;;11.63;2.50;;;;;;;;;;5001057;28;20573;-63
2022/11/24 10:08:05;;;;;;;13.57;3.20;;;;;;;;;;5002034;28;20236;-63
2022/11/24 10:10:33;;;;;;;10.25;2.55;;;;;;;;;;4974979;28;20416;-63
2022/11/24 10:13:04;;;;;;;12.82;3.15;;;;;;;;;;4982472;28;20209;-63
2022/11/24 10:15:32;;;;;;;13.88;2.30;;;;;;;;;;4987855;28;20676;-63
2022/11/24 10:18:10;;;;;;;8.15;2.30;;;;;;;;;;4991478;28;20231;-65
2022/11/24 10:20:41;;;;;;;13.48;2.38;;;;;;;;;;4988760;28;20896;-65
2022/11/24 10:23:09;;;;;;;11.90;2.75;;;;;;;;;;4979408;28;20580;-65
2022/11/24 10:25:42;;;;;;;8.63;2.17;;;;;;;;;;4980308;28;20631;-65
2022/11/24 10:28:12;;;;;;;11.57;2.50;;;;;;;;;;4982550;28;20227;-65
2022/11/24 10:30:37;;;;;;;11.20;2.40;;;;;;;;;;4986425;28;20311;-65
2022/11/24 10:33:10;;;;;;;8.80;2.13;;;;;;;;;;4973040;28;20301;-65
2022/11/24 10:35:36;;;;;;;10.15;2.33;;;;;;;;;;4985110;28;20764;-65
2022/11/24 10:38:06;;;;;;;13.20;2.58;;;;;;;;;;4986942;28;20229;-66
2022/11/24 10:40:33;;;;;;;10.52;2.80;;;;;;;;;;4973263;28;20222;-66
2022/11/24 10:42:58;;;;;;;10.02;2.42;;;;;;;;;;4966765;28;20221;-65
2022/11/24 10:45:24;;;;;;;10.63;2.33;;;;;;;;;;4959272;28;20773;-66
2022/11/24 10:47:49;;;;;;;12.73;2.20;;;;;;;;;;4959847;28;20232;-65
2022/11/24 10:50:24;;;;;;;8.30;2.20;;;;;;;;;;4961767;28;20217;-65
2022/11/24 10:52:57;;;;;;;8.38;2.17;;;;;;;;;;4968123;28;20663;-65
2022/11/24 10:55:22;;;;;;;13.40;2.60;;;;;;;;;;4985821;28;20209;-65
2022/11/24 10:57:47;;;;;;;9.43;2.20;;;;;;;;;;4974631;28;20225;-65
2022/11/24 11:00:18;;;;;;;13.68;2.40;;;;;;;;;;4966754;28;20236;-66
2022/11/24 11:02:44;;;;;;;13.57;3.17;;;;;;;;;;4967885;28;20221;-66
2022/11/24 11:05:24;;;;;;;12.23;2.45;;;;;;;;;;4966396;28;20561;-66
2022/11/24 11:07:49;;;;;;;10.55;2.33;;;;;;;;;;4964311;28;20291;-66
2022/11/24 11:10:19;;;;;;;9.57;2.53;;;;;;;;;;4958879;28;20221;-66
2022/11/24 11:12:44;;;;;;;11.00;2.50;;;;;;;;;;4979352;28;20256;-66
2022/11/24 11:15:20;;;;;;;12.02;2.50;;;;;;;;;;4982584;28;20578;-66
2022/11/24 11:17:45;;;;;;;11.38;2.97;;;;;;;;;;4985989;28;20216;-66
2022/11/24 11:20:16;;;;;;;10.90;2.42;;;;;;;;;;4985755;28;20664;-66
2022/11/24 11:22:42;;;;;;;13.00;2.40;;;;;;;;;;4986340;28;20586;-66
2022/11/24 11:25:08;;;;;;;12.48;3.20;;;;;;;;;;4985507;28;20209;-66
2022/11/24 11:27:33;;;;;;;13.38;2.63;;;;;;;;;;4986854;28;21078;-66
2022/11/24 11:30:15;;;;;;;10.43;2.63;;;;;;;;;;4977114;28;20228;-66
2022/11/24 11:33:01;;;;;;;13.23;2.67;;;;;;;;;;4984453;28;20224;-66
2022/11/24 11:35:26;;;;;;;14.57;2.55;;;;;;;;;;4999556;28;20307;-66
2022/11/24 11:37:53;;;;;;;12.48;2.40;;;;;;;;;;5004433;28;20240;-66
2022/11/24 11:40:20;;;;;;;9.27;2.40;;;;;;;;;;5001233;28;20221;-66
2022/11/24 11:42:47;;;;;;;12.52;2.88;;;;;;;;;;5004529;28;20247;-66
2022/11/24 11:45:14;;;;;;;14.27;2.60;;;;;;;;;;5002781;28;20270;-66
2022/11/24 11:47:47;;;;;;;16.73;2.80;;;;;;;;;;5004181;28;20212;-66
2022/11/24 11:50:14;;;;;;;14.90;3.00;;;;;;;;;;5003761;28;20212;-66
2022/11/24 11:52:42;;;;;;;12.80;2.67;;;;;;;;;;4997081;28;20220;-66
2022/11/24 11:55:13;;;;;;;15.00;2.90;;;;;;;;;;4996437;28;20351;-65
2022/11/24 11:57:49;;;;;;;12.85;2.40;;;;;;;;;;4998265;28;20688;-65
2022/11/24 12:00:15;;;;;;;11.98;2.83;;;;;;;;;;5003106;28;20756;-65
2022/11/24 12:02:53;;;;;;;12.85;2.50;;;;;;;;;;5007219;28;20295;-66
2022/11/24 12:05:23;;;;;;;14.88;2.92;;;;;;;;;;5007444;28;20696;-66
2022/11/24 12:07:55;;;;;;;14.20;3.03;;;;;;;;;;4991108;28;20567;-65
2022/11/24 12:10:20;;;;;;;13.65;2.75;;;;;;;;;;5011138;28;20277;-65
2022/11/24 12:12:49;;;;;;;14.65;2.50;;;;;;;;;;5011538;28;20298;-65
2022/11/24 12:15:24;;;;;;;12.30;2.80;;;;;;;;;;4987489;28;20284;-65
2022/11/24 12:17:52;;;;;;;13.98;2.55;;;;;;;;;;4986546;28;20680;-65
2022/11/24 12:20:33;;;;;;;13.38;2.70;;;;;;;;;;4993138;28;20275;-65
2022/11/24 12:23:01;;;;;;;16.48;3.05;;;;;;;;;;4995920;28;20704;-65
2022/11/24 12:25:28;;;;;;;17.70;3.35;;;;;;;;;;4994361;28;20217;-65
2022/11/24 12:28:01;;;;;;;14.45;3.05;;;;;;;;;;4993930;28;20223;-65
2022/11/24 12:30:29;;;;;;;15.07;2.80;;;;;;;;;;4994484;28;20205;-65
2022/11/24 12:33:01;;;;;;;19.92;3.55;;;;;;;;;;4994699;28;20213;-65
2022/11/24 12:35:32;;;;;;;14.52;3.17;;;;;;;;;;4994830;28;20304;-65
2022/11/24 12:38:08;;;;;;;13.93;3.47;;;;;;;;;;4995894;28;20345;-65
2022/11/24 12:40:33;;;;;;;16.88;3.35;;;;;;;;;;4980462;28;20309;-65
2022/11/24 12:43:03;;;;;;;18.30;3.25;;;;;;;;;;4976084;28;20360;-65
2022/11/24 12:45:35;;;;;;;12.68;2.60;;;;;;;;;;4994111;28;20340;-65
2022/11/24 12:48:13;;;;;;;20.35;3.17;;;;;;;;;;5002852;28;20224;-65
2022/11/24 12:50:38;;;;;;;13.98;3.30;;;;;;;;;;5014857;28;20216;-65
2022/11/24 12:53:10;;;;;;;13.70;3.22;;;;;;;;;;5005330;28;20215;-65
2022/11/24 12:55:35;;;;;;;21.05;3.65;;;;;;;;;;5004646;28;20779;-65
2022/11/24 12:58:07;;;;;;;15.80;2.95;;;;;;;;;;5013429;28;20212;-65
2022/11/24 13:00:35;;;;;;;15.75;2.90;;;;;;;;;;5014741;28;20235;-65
2022/11/24 13:03:01;;;;;;;16.60;3.17;;;;;;;;;;4996258;28;20209;-65
2022/11/24 13:05:36;;;;;;;17.70;3.28;;;;;;;;;;5002492;28;21055;-65
2022/11/24 13:08:02;;;;;;;14.07;3.00;;;;;;;;;;4994823;28;20240;-65
2022/11/24 13:10:29;;;;;;;14.98;2.95;;;;;;;;;;5004626;28;20593;-64
2022/11/24 13:12:56;;;;;;;13.32;3.17;;;;;;;;;;4998565;28;20221;-64
2022/11/24 13:15:22;;;;;;;13.68;2.90;;;;;;;;;;4980936;28;20213;-64
2022/11/24 13:17:47;;;;;;;17.70;3.13;;;;;;;;;;4993043;28;20680;-64
2022/11/24 13:20:13;;;;;;;14.25;3.08;;;;;;;;;;4993280;28;20240;-64
2022/11/24 13:22:39;;;;;;;18.35;3.15;;;;;;;;;;4994850;28;20240;-64
2022/11/24 13:25:12;;;;;;;18.13;3.40;;;;;;;;;;4992217;28;20240;-64
2022/11/24 13:27:38;;;;;;;14.88;3.05;;;;;;;;;;4993735;28;20212;-65
2022/11/24 13:30:08;;;;;;;16.98;3.25;;;;;;;;;;4993539;28;20217;-64
2022/11/24 13:32:33;;;;;;;14.43;3.40;;;;;;;;;;4994137;28;20217;-64
2022/11/24 13:35:03;;;;;;;15.38;3.05;;;;;;;;;;4993513;28;20217;-65
2022/11/24 13:37:28;;;;;;;16.33;2.95;;;;;;;;;;5011953;28;20217;-65
2022/11/24 13:39:54;;;;;;;14.32;2.60;;;;;;;;;;4990531;28;20294;-65
2022/11/24 13:42:20;;;;;;;13.10;3.00;;;;;;;;;;4973348;28;20741;-65
2022/11/24 13:44:46;;;;;;;15.25;2.70;;;;;;;;;;4973108;28;20214;-64
2022/11/24 13:47:29;;;;;;;16.45;2.75;;;;;;;;;;5001047;28;20212;-64
2022/11/24 13:49:55;;;;;;;15.38;2.80;;;;;;;;;;5014188;28;20275;-65
2022/11/24 13:52:46;;;;;;;15.13;3.25;;;;;;;;;;5003257;28;20219;-65
2022/11/24 13:55:12;;;;;;;14.00;2.85;;;;;;;;;;5013191;28;20213;-64
2022/11/24 13:57:37;;;;;;;13.73;2.60;;;;;;;;;;5013887;28;20209;-64
2022/11/24 14:00:03;;;;;;;13.27;2.53;;;;;;;;;;5012716;28;20704;-64
2022/11/24 14:02:29;;;;;;;15.52;3.03;;;;;;;;;;5013846;28;20247;-64
2022/11/24 14:04:54;;;;;;;17.23;3.10;;;;;;;;;;5013244;28;20303;-64
2022/11/24 14:07:19;;;;;;;18.35;2.50;;;;;;;;;;5003928;28;20223;-62
2022/11/24 14:09:46;;;;;;;16.02;2.95;;;;;;;;;;4991476;28;20251;-65
2022/11/24 14:12:12;;;;;;;16.48;2.90;;;;;;;;;;4990875;28;20240;-64
2022/11/24 14:14:38;;;;;;;15.32;2.67;;;;;;;;;;4992534;28;20267;-64
2022/11/24 14:17:05;;;;;;;14.80;3.10;;;;;;;;;;4993764;28;20197;-64
2022/11/24 14:19:30;;;;;;;17.13;2.80;;;;;;;;;;4993192;28;20221;-64
2022/11/24 14:21:55;;;;;;;15.77;2.72;;;;;;;;;;4993485;28;20244;-64
2022/11/24 14:24:22;;;;;;;14.82;2.67;;;;;;;;;;4991896;28;20225;-64
2022/11/24 14:26:47;;;;;;;13.95;2.55;;;;;;;;;;4992791;28;20213;-64
2022/11/24 14:29:14;;;;;;;14.13;2.65;;;;;;;;;;4992941;28;20209;-64
2022/11/24 14:31:40;;;;;;;12.45;2.60;;;;;;;;;;4979262;28;20222;-64